sensor_id;sensor_type;location;lat;lon;timestamp;pressure;altitude;pressure_sealevel;temperature;humidity
80837;BME280;70251;60.008;30.404;2023-07-13T00:00:42;100054.59;;;21.00;43.54
80837;BME280;70251;60.008;30.404;2023-07-13T00:03:07;100050.84;;;20.94;42.88
80837;BME280;70251;60.008;30.404;2023-07-13T00:05:33;100045.19;;;20.96;42.59
80837;BME280;70251;60.008;30.404;2023-07-13T00:07:58;100052.13;;;20.92;42.56
80837;BME280;70251;60.008;30.404;2023-07-13T00:10:24;100044.47;;;20.82;42.60
80837;BME280;70251;60.008;30.404;2023-07-13T00:12:49;100043.03;;;20.73;42.68
80837;BME280;70251;60.008;30.404;2023-07-13T00:15:23;100054.31;;;20.70;43.13
80837;BME280;70251;60.008;30.404;2023-07-13T00:17:50;100049.91;;;20.75;43.21
80837;BME280;70251;60.008;30.404;2023-07-13T00:20:18;100047.16;;;20.88;43.28
80837;BME280;70251;60.008;30.404;2023-07-13T00:22:46;100048.53;;;20.98;43.19
80837;BME280;70251;60.008;30.404;2023-07-13T00:25:15;100043.50;;;21.08;43.44
80837;BME280;70251;60.008;30.404;2023-07-13T00:27:43;100039.50;;;21.17;43.37
80837;BME280;70251;60.008;30.404;2023-07-13T00:30:10;100026.91;;;21.22;42.85
80837;BME280;70251;60.008;30.404;2023-07-13T00:32:35;100018.13;;;21.27;43.08
80837;BME280;70251;60.008;30.404;2023-07-13T00:35:01;100023.09;;;21.30;43.08
80837;BME280;70251;60.008;30.404;2023-07-13T00:37:29;100019.09;;;21.32;42.93
80837;BME280;70251;60.008;30.404;2023-07-13T00:39:55;100018.66;;;21.35;42.33
80837;BME280;70251;60.008;30.404;2023-07-13T00:42:21;100014.88;;;21.36;42.16
80837;BME280;70251;60.008;30.404;2023-07-13T00:47:31;100003.59;;;21.39;41.74
80837;BME280;70251;60.008;30.404;2023-07-13T00:49:57;100007.75;;;21.42;41.95
80837;BME280;70251;60.008;30.404;2023-07-13T00:52:23;100004.22;;;21.41;42.09
80837;BME280;70251;60.008;30.404;2023-07-13T00:54:49;100014.22;;;21.41;41.97
80837;BME280;70251;60.008;30.404;2023-07-13T00:57:19;100017.78;;;21.41;41.70
80837;BME280;70251;60.008;30.404;2023-07-13T00:59:49;100009.41;;;21.43;41.94
80837;BME280;70251;60.008;30.404;2023-07-13T01:02:16;100006.03;;;21.47;42.03
80837;BME280;70251;60.008;30.404;2023-07-13T01:04:42;100009.34;;;21.49;42.06
80837;BME280;70251;60.008;30.404;2023-07-13T01:07:10;100000.16;;;21.50;41.94
80837;BME280;70251;60.008;30.404;2023-07-13T01:09:37;99999.75;;;21.47;42.24
80837;BME280;70251;60.008;30.404;2023-07-13T01:12:03;99993.13;;;21.43;42.11
80837;BME280;70251;60.008;30.404;2023-07-13T01:14:29;99988.97;;;21.40;42.42
80837;BME280;70251;60.008;30.404;2023-07-13T01:16:54;99989.19;;;21.39;42.30
80837;BME280;70251;60.008;30.404;2023-07-13T01:19:39;99998.53;;;21.43;42.49
80837;BME280;70251;60.008;30.404;2023-07-13T01:22:14;99991.69;;;21.16;42.72
80837;BME280;70251;60.008;30.404;2023-07-13T01:24:42;99993.50;;;20.91;43.08
80837;BME280;70251;60.008;30.404;2023-07-13T01:27:11;99996.13;;;20.72;43.87
80837;BME280;70251;60.008;30.404;2023-07-13T01:29:38;100004.88;;;20.74;43.48
80837;BME280;70251;60.008;30.404;2023-07-13T01:34:56;99986.97;;;20.98;43.56
80837;BME280;70251;60.008;30.404;2023-07-13T01:37:26;99990.91;;;21.09;44.06
80837;BME280;70251;60.008;30.404;2023-07-13T01:40:03;99990.09;;;21.08;44.21
80837;BME280;70251;60.008;30.404;2023-07-13T01:42:30;99981.34;;;21.00;44.03
80837;BME280;70251;60.008;30.404;2023-07-13T01:44:55;99993.06;;;20.94;44.06
80837;BME280;70251;60.008;30.404;2023-07-13T01:47:23;99992.28;;;20.86;44.57
80837;BME280;70251;60.008;30.404;2023-07-13T01:49:49;99985.88;;;20.74;44.42
80837;BME280;70251;60.008;30.404;2023-07-13T01:52:16;99983.66;;;20.65;44.89
80837;BME280;70251;60.008;30.404;2023-07-13T01:54:44;99985.56;;;20.58;45.04
80837;BME280;70251;60.008;30.404;2023-07-13T01:57:09;99990.19;;;20.51;45.13
80837;BME280;70251;60.008;30.404;2023-07-13T01:59:35;99988.94;;;20.53;45.08
80837;BME280;70251;60.008;30.404;2023-07-13T02:02:00;99991.19;;;20.63;45.18
80837;BME280;70251;60.008;30.404;2023-07-13T02:04:26;99985.69;;;20.76;44.74
80837;BME280;70251;60.008;30.404;2023-07-13T02:06:57;99970.19;;;20.83;44.81
80837;BME280;70251;60.008;30.404;2023-07-13T02:09:23;99984.34;;;20.85;44.77
80837;BME280;70251;60.008;30.404;2023-07-13T02:11:48;99977.66;;;20.87;44.85
80837;BME280;70251;60.008;30.404;2023-07-13T02:14:16;99967.59;;;20.95;44.78
80837;BME280;70251;60.008;30.404;2023-07-13T02:16:42;99972.16;;;21.01;44.66
80837;BME280;70251;60.008;30.404;2023-07-13T02:19:10;99957.56;;;21.02;45.10
80837;BME280;70251;60.008;30.404;2023-07-13T02:21:36;99961.72;;;21.04;45.14
80837;BME280;70251;60.008;30.404;2023-07-13T02:24:04;99956.28;;;21.04;44.88
80837;BME280;70251;60.008;30.404;2023-07-13T02:26:30;99959.41;;;21.08;44.89
80837;BME280;70251;60.008;30.404;2023-07-13T02:29:01;99961.28;;;21.07;45.06
80837;BME280;70251;60.008;30.404;2023-07-13T02:31:27;99962.56;;;21.05;44.97
80837;BME280;70251;60.008;30.404;2023-07-13T02:33:54;99960.03;;;21.10;45.13
80837;BME280;70251;60.008;30.404;2023-07-13T02:36:19;99979.78;;;21.17;45.14
80837;BME280;70251;60.008;30.404;2023-07-13T02:38:45;99971.44;;;21.18;45.23
80837;BME280;70251;60.008;30.404;2023-07-13T02:41:16;99967.44;;;21.21;45.51
80837;BME280;70251;60.008;30.404;2023-07-13T02:43:43;99976.19;;;21.23;45.26
80837;BME280;70251;60.008;30.404;2023-07-13T02:46:09;99974.97;;;21.19;45.34
80837;BME280;70251;60.008;30.404;2023-07-13T02:48:38;99980.84;;;21.16;45.29
80837;BME280;70251;60.008;30.404;2023-07-13T02:51:07;99971.47;;;21.12;45.68
80837;BME280;70251;60.008;30.404;2023-07-13T02:53:33;99976.13;;;21.05;45.14
80837;BME280;70251;60.008;30.404;2023-07-13T02:56:00;99970.91;;;21.03;45.26
80837;BME280;70251;60.008;30.404;2023-07-13T02:58:26;99985.72;;;21.01;45.29
80837;BME280;70251;60.008;30.404;2023-07-13T03:00:51;99984.06;;;21.00;45.71
80837;BME280;70251;60.008;30.404;2023-07-13T03:03:20;99990.34;;;20.94;45.25
80837;BME280;70251;60.008;30.404;2023-07-13T03:05:45;100000.59;;;20.92;45.44
80837;BME280;70251;60.008;30.404;2023-07-13T03:08:15;100000.16;;;20.95;45.45
80837;BME280;70251;60.008;30.404;2023-07-13T03:10:41;99998.47;;;20.94;45.50
80837;BME280;70251;60.008;30.404;2023-07-13T03:13:07;99991.41;;;20.93;45.20
80837;BME280;70251;60.008;30.404;2023-07-13T03:15:41;99991.56;;;20.98;45.54
80837;BME280;70251;60.008;30.404;2023-07-13T03:18:06;100002.03;;;20.94;45.16
80837;BME280;70251;60.008;30.404;2023-07-13T03:20:33;100002.25;;;20.93;45.01
80837;BME280;70251;60.008;30.404;2023-07-13T03:23:02;99998.47;;;20.94;45.04
80837;BME280;70251;60.008;30.404;2023-07-13T03:25:28;99996.84;;;20.93;44.83
80837;BME280;70251;60.008;30.404;2023-07-13T03:27:53;100002.03;;;20.94;44.99
80837;BME280;70251;60.008;30.404;2023-07-13T03:30:19;100001.19;;;20.94;44.63
80837;BME280;70251;60.008;30.404;2023-07-13T03:32:45;99984.91;;;20.94;44.95
80837;BME280;70251;60.008;30.404;2023-07-13T03:35:10;99986.38;;;20.96;45.09
80837;BME280;70251;60.008;30.404;2023-07-13T03:37:40;99990.34;;;20.94;44.63
80837;BME280;70251;60.008;30.404;2023-07-13T03:40:08;99989.13;;;20.89;44.65
80837;BME280;70251;60.008;30.404;2023-07-13T03:42:34;99982.06;;;20.88;44.75
80837;BME280;70251;60.008;30.404;2023-07-13T03:45:00;99981.59;;;20.92;44.73
80837;BME280;70251;60.008;30.404;2023-07-13T03:47:26;99970.94;;;20.97;44.71
80837;BME280;70251;60.008;30.404;2023-07-13T03:49:51;99964.25;;;20.99;44.56
80837;BME280;70251;60.008;30.404;2023-07-13T03:52:17;99957.97;;;20.99;44.12
80837;BME280;70251;60.008;30.404;2023-07-13T03:54:42;99956.31;;;20.98;44.31
80837;BME280;70251;60.008;30.404;2023-07-13T03:57:08;99959.25;;;20.96;44.22
80837;BME280;70251;60.008;30.404;2023-07-13T03:59:34;99959.25;;;20.96;44.05
80837;BME280;70251;60.008;30.404;2023-07-13T04:02:01;99969.22;;;21.02;43.82
80837;BME280;70251;60.008;30.404;2023-07-13T04:04:30;99969.66;;;21.06;43.90
80837;BME280;70251;60.008;30.404;2023-07-13T04:06:57;99970.88;;;21.10;43.90
80837;BME280;70251;60.008;30.404;2023-07-13T04:09:29;99973.72;;;21.15;43.62
80837;BME280;70251;60.008;30.404;2023-07-13T04:11:55;99963.56;;;21.10;43.24
80837;BME280;70251;60.008;30.404;2023-07-13T04:14:23;99958.34;;;21.02;43.24
80837;BME280;70251;60.008;30.404;2023-07-13T04:16:48;99952.56;;;20.99;43.45
80837;BME280;70251;60.008;30.404;2023-07-13T04:19:14;99957.56;;;21.02;43.39
80837;BME280;70251;60.008;30.404;2023-07-13T04:21:39;99953.81;;;21.03;43.29
80837;BME280;70251;60.008;30.404;2023-07-13T04:24:05;99957.13;;;20.98;43.18
80837;BME280;70251;60.008;30.404;2023-07-13T04:26:31;99953.44;;;20.93;42.99
80837;BME280;70251;60.008;30.404;2023-07-13T04:28:57;99961.97;;;20.96;42.97
80837;BME280;70251;60.008;30.404;2023-07-13T04:31:23;99959.41;;;21.08;42.61
80837;BME280;70251;60.008;30.404;2023-07-13T04:33:49;99952.88;;;21.15;42.54
80837;BME280;70251;60.008;30.404;2023-07-13T04:36:19;99957.94;;;21.30;42.08
80837;BME280;70251;60.008;30.404;2023-07-13T04:38:45;99959.44;;;21.26;41.86
80837;BME280;70251;60.008;30.404;2023-07-13T04:41:10;99959.31;;;21.21;41.23
80837;BME280;70251;60.008;30.404;2023-07-13T04:43:39;99956.00;;;21.19;41.41
80837;BME280;70251;60.008;30.404;2023-07-13T04:46:16;99954.50;;;21.23;40.87
80837;BME280;70251;60.008;30.404;2023-07-13T04:48:43;99951.31;;;21.26;40.85
80837;BME280;70251;60.008;30.404;2023-07-13T04:51:09;99944.00;;;21.26;40.24
80837;BME280;70251;60.008;30.404;2023-07-13T04:53:35;99950.94;;;21.22;40.50
80837;BME280;70251;60.008;30.404;2023-07-13T04:56:01;99938.19;;;21.23;40.25
80837;BME280;70251;60.008;30.404;2023-07-13T04:58:27;99939.09;;;21.17;40.14
80837;BME280;70251;60.008;30.404;2023-07-13T05:00:53;99940.75;;;21.18;40.14
80837;BME280;70251;60.008;30.404;2023-07-13T05:03:19;99947.38;;;21.22;39.88
80837;BME280;70251;60.008;30.404;2023-07-13T05:05:55;99943.50;;;21.36;39.49
80837;BME280;70251;60.008;30.404;2023-07-13T05:08:26;99941.78;;;21.41;39.19
80837;BME280;70251;60.008;30.404;2023-07-13T05:10:52;99936.59;;;21.40;39.87
80837;BME280;70251;60.008;30.404;2023-07-13T05:13:19;99945.94;;;21.44;39.50
80837;BME280;70251;60.008;30.404;2023-07-13T05:15:45;99941.41;;;21.38;39.93
80837;BME280;70251;60.008;30.404;2023-07-13T05:18:11;99939.13;;;21.35;39.81
80837;BME280;70251;60.008;30.404;2023-07-13T05:20:36;99931.41;;;21.32;39.87
80837;BME280;70251;60.008;30.404;2023-07-13T05:23:05;99941.41;;;21.38;40.08
80837;BME280;70251;60.008;30.404;2023-07-13T05:25:30;99949.09;;;21.41;39.97
80837;BME280;70251;60.008;30.404;2023-07-13T05:27:56;99946.97;;;21.43;39.79
80837;BME280;70251;60.008;30.404;2023-07-13T05:30:21;99948.03;;;21.42;39.93
80837;BME280;70251;60.008;30.404;2023-07-13T05:32:47;99950.59;;;21.37;39.93
80837;BME280;70251;60.008;30.404;2023-07-13T05:35:15;99950.66;;;21.30;40.22
80837;BME280;70251;60.008;30.404;2023-07-13T05:37:41;99953.03;;;21.20;40.36
80837;BME280;70251;60.008;30.404;2023-07-13T05:40:07;99955.19;;;21.12;40.84
80837;BME280;70251;60.008;30.404;2023-07-13T05:42:33;99953.81;;;21.03;40.59
80837;BME280;70251;60.008;30.404;2023-07-13T05:44:58;99960.91;;;21.04;40.91
80837;BME280;70251;60.008;30.404;2023-07-13T05:47:24;99964.44;;;21.04;41.04
80837;BME280;70251;60.008;30.404;2023-07-13T05:49:50;99966.34;;;21.04;41.38
80837;BME280;70251;60.008;30.404;2023-07-13T05:52:15;99970.47;;;21.06;40.89
80837;BME280;70251;60.008;30.404;2023-07-13T05:54:41;99969.59;;;21.12;41.16
80837;BME280;70251;60.008;30.404;2023-07-13T05:57:06;99960.81;;;21.17;41.34
80837;BME280;70251;60.008;30.404;2023-07-13T05:59:32;99955.09;;;21.25;41.22
80837;BME280;70251;60.008;30.404;2023-07-13T06:01:57;99961.44;;;21.37;41.04
80837;BME280;70251;60.008;30.404;2023-07-13T06:04:26;99951.75;;;21.47;40.96
80837;BME280;70251;60.008;30.404;2023-07-13T06:06:52;99955.06;;;21.49;40.99
80837;BME280;70251;60.008;30.404;2023-07-13T06:09:18;99948.72;;;21.55;41.35
80837;BME280;70251;60.008;30.404;2023-07-13T06:11:43;99949.13;;;21.59;41.09
80837;BME280;70251;60.008;30.404;2023-07-13T06:14:09;99950.78;;;21.60;41.10
80837;BME280;70251;60.008;30.404;2023-07-13T06:16:35;99959.09;;;21.65;41.37
80837;BME280;70251;60.008;30.404;2023-07-13T06:19:00;99950.94;;;21.65;41.33
80837;BME280;70251;60.008;30.404;2023-07-13T06:21:26;99950.94;;;21.65;41.39
80837;BME280;70251;60.008;30.404;2023-07-13T06:23:52;99953.50;;;21.60;41.42
80837;BME280;70251;60.008;30.404;2023-07-13T06:26:19;99952.88;;;21.58;41.46
80837;BME280;70251;60.008;30.404;2023-07-13T06:28:50;99954.38;;;21.54;41.82
80837;BME280;70251;60.008;30.404;2023-07-13T06:31:16;99952.50;;;21.54;41.58
80837;BME280;70251;60.008;30.404;2023-07-13T06:33:42;99959.16;;;21.58;41.89
80837;BME280;70251;60.008;30.404;2023-07-13T06:36:08;99949.13;;;21.59;41.82
80837;BME280;70251;60.008;30.404;2023-07-13T06:38:34;99949.50;;;21.62;41.93
80837;BME280;70251;60.008;30.404;2023-07-13T06:41:00;99954.50;;;21.66;41.92
80837;BME280;70251;60.008;30.404;2023-07-13T06:43:26;99958.84;;;21.67;41.65
80837;BME280;70251;60.008;30.404;2023-07-13T06:45:55;99964.88;;;21.69;41.75
80837;BME280;70251;60.008;30.404;2023-07-13T06:48:27;99957.41;;;21.64;42.05
80837;BME280;70251;60.008;30.404;2023-07-13T06:50:53;99969.94;;;21.65;41.97
80837;BME280;70251;60.008;30.404;2023-07-13T06:53:19;99969.41;;;21.56;42.17
80837;BME280;70251;60.008;30.404;2023-07-13T06:55:45;99970.00;;;21.58;42.30
80837;BME280;70251;60.008;30.404;2023-07-13T06:58:16;99969.28;;;21.70;42.13
80837;BME280;70251;60.008;30.404;2023-07-13T07:00:42;99971.22;;;21.81;41.85
80837;BME280;70251;60.008;30.404;2023-07-13T07:03:11;99964.47;;;21.90;41.93
80837;BME280;70251;60.008;30.404;2023-07-13T07:05:36;99973.56;;;22.02;41.99
80837;BME280;70251;60.008;30.404;2023-07-13T07:08:02;99985.84;;;22.04;41.62
80837;BME280;70251;60.008;30.404;2023-07-13T07:10:29;99975.97;;;22.10;41.97
80837;BME280;70251;60.008;30.404;2023-07-13T07:12:55;99983.81;;;22.18;41.73
80837;BME280;70251;60.008;30.404;2023-07-13T07:15:21;99986.16;;;22.14;41.78
80837;BME280;70251;60.008;30.404;2023-07-13T07:17:46;99987.75;;;22.04;41.95
80837;BME280;70251;60.008;30.404;2023-07-13T07:20:12;99983.28;;;21.91;41.98
80837;BME280;70251;60.008;30.404;2023-07-13T07:22:40;99996.50;;;21.81;42.38
80837;BME280;70251;60.008;30.404;2023-07-13T07:25:06;99992.44;;;21.72;42.59
80837;BME280;70251;60.008;30.404;2023-07-13T07:27:32;99985.94;;;21.73;42.76
80837;BME280;70251;60.008;30.404;2023-07-13T07:29:59;99977.78;;;21.73;42.65
80837;BME280;70251;60.008;30.404;2023-07-13T07:32:24;99989.25;;;21.75;42.29
80837;BME280;70251;60.008;30.404;2023-07-13T07:34:50;99991.00;;;21.70;42.27
80837;BME280;70251;60.008;30.404;2023-07-13T07:37:16;99990.66;;;21.84;42.15
80837;BME280;70251;60.008;30.404;2023-07-13T07:39:43;99987.47;;;21.87;42.25
80837;BME280;70251;60.008;30.404;2023-07-13T07:42:08;99991.81;;;21.95;42.21
80837;BME280;70251;60.008;30.404;2023-07-13T07:44:34;99991.88;;;21.88;42.70
80837;BME280;70251;60.008;30.404;2023-07-13T07:47:00;99996.41;;;21.94;42.32
80837;BME280;70251;60.008;30.404;2023-07-13T07:49:26;99999.81;;;22.08;42.34
80837;BME280;70251;60.008;30.404;2023-07-13T07:51:52;99998.63;;;22.04;42.34
80837;BME280;70251;60.008;30.404;2023-07-13T07:54:18;100000.94;;;22.00;42.58
80837;BME280;70251;60.008;30.404;2023-07-13T07:56:44;100001.41;;;21.97;42.67
80837;BME280;70251;60.008;30.404;2023-07-13T07:59:10;100002.19;;;21.98;42.29
80837;BME280;70251;60.008;30.404;2023-07-13T08:01:38;100015.13;;;22.02;43.19
80837;BME280;70251;60.008;30.404;2023-07-13T08:04:04;100004.41;;;22.07;42.55
80837;BME280;70251;60.008;30.404;2023-07-13T08:06:32;100008.84;;;22.20;42.51
80837;BME280;70251;60.008;30.404;2023-07-13T08:09:01;100003.34;;;22.26;42.58
80837;BME280;70251;60.008;30.404;2023-07-13T08:11:29;100002.59;;;22.37;42.55
80837;BME280;70251;60.008;30.404;2023-07-13T08:13:55;100003.19;;;22.39;42.32
80837;BME280;70251;60.008;30.404;2023-07-13T08:16:21;100002.13;;;22.40;42.32
80837;BME280;70251;60.008;30.404;2023-07-13T08:18:47;99997.75;;;22.39;42.34
80837;BME280;70251;60.008;30.404;2023-07-13T08:21:12;99990.19;;;22.42;42.09
80837;BME280;70251;60.008;30.404;2023-07-13T08:23:40;99988.53;;;22.59;42.23
80837;BME280;70251;60.008;30.404;2023-07-13T08:26:06;99985.41;;;22.73;41.58
80837;BME280;70251;60.008;30.404;2023-07-13T08:28:33;99990.56;;;23.04;41.89
80837;BME280;70251;60.008;30.404;2023-07-13T08:31:05;99988.66;;;23.35;41.33
80837;BME280;70251;60.008;30.404;2023-07-13T08:33:37;99984.28;;;23.45;40.97
80837;BME280;70251;60.008;30.404;2023-07-13T08:36:04;99983.94;;;23.65;40.59
80837;BME280;70251;60.008;30.404;2023-07-13T08:38:30;99982.84;;;23.77;40.70
80837;BME280;70251;60.008;30.404;2023-07-13T08:40:56;99985.59;;;23.89;40.65
80837;BME280;70251;60.008;30.404;2023-07-13T08:43:28;99981.53;;;24.15;40.35
80837;BME280;70251;60.008;30.404;2023-07-13T08:46:19;99982.25;;;24.50;39.91
80837;BME280;70251;60.008;30.404;2023-07-13T08:48:50;99994.47;;;24.47;39.42
80837;BME280;70251;60.008;30.404;2023-07-13T08:51:24;99994.59;;;24.41;39.94
80837;BME280;70251;60.008;30.404;2023-07-13T08:53:57;99983.88;;;24.23;39.80
80837;BME280;70251;60.008;30.404;2023-07-13T08:56:27;99986.88;;;24.10;40.17
80837;BME280;70251;60.008;30.404;2023-07-13T08:58:56;99984.75;;;23.88;40.18
80837;BME280;70251;60.008;30.404;2023-07-13T09:04:22;99979.03;;;24.02;40.26
80837;BME280;70251;60.008;30.404;2023-07-13T09:17:49;99976.53;;;24.91;39.63
80837;BME280;70251;60.008;30.404;2023-07-13T09:20:27;99975.75;;;24.79;39.71
80837;BME280;70251;60.008;30.404;2023-07-13T09:22:56;99977.09;;;24.93;39.54
80837;BME280;70251;60.008;30.404;2023-07-13T09:25:33;99973.50;;;25.04;39.51
80837;BME280;70251;60.008;30.404;2023-07-13T09:28:10;99964.88;;;25.29;39.10
80837;BME280;70251;60.008;30.404;2023-07-13T09:30:54;99966.00;;;25.45;38.86
80837;BME280;70251;60.008;30.404;2023-07-13T09:33:22;99966.47;;;25.42;38.95
80837;BME280;70251;60.008;30.404;2023-07-13T09:35:48;99970.63;;;25.44;38.81
80837;BME280;70251;60.008;30.404;2023-07-13T09:38:19;99970.09;;;25.64;38.77
80837;BME280;70251;60.008;30.404;2023-07-13T09:41:02;99971.19;;;25.63;38.64
80837;BME280;70251;60.008;30.404;2023-07-13T09:43:31;99972.09;;;25.68;38.81
80837;BME280;70251;60.008;30.404;2023-07-13T09:45:59;99960.38;;;25.89;38.60
80837;BME280;70251;60.008;30.404;2023-07-13T09:48:25;99968.38;;;25.96;38.41
80837;BME280;70251;60.008;30.404;2023-07-13T09:51:07;99963.97;;;25.95;37.75
80837;BME280;70251;60.008;30.404;2023-07-13T09:53:42;99961.13;;;25.85;38.15
80837;BME280;70251;60.008;30.404;2023-07-13T09:56:27;99953.38;;;25.77;37.42
80837;BME280;70251;60.008;30.404;2023-07-13T09:58:55;99938.59;;;25.78;38.20
80837;BME280;70251;60.008;30.404;2023-07-13T10:01:34;99945.16;;;25.98;37.27
80837;BME280;70251;60.008;30.404;2023-07-13T10:04:00;99943.25;;;25.99;37.57
80837;BME280;70251;60.008;30.404;2023-07-13T10:06:26;99955.22;;;25.93;37.62
80837;BME280;70251;60.008;30.404;2023-07-13T10:08:52;99949.91;;;25.86;37.36
80837;BME280;70251;60.008;30.404;2023-07-13T10:11:37;99950.53;;;26.10;37.19
80837;BME280;70251;60.008;30.404;2023-07-13T10:14:23;99956.22;;;26.25;37.09
80837;BME280;70251;60.008;30.404;2023-07-13T10:16:58;99953.16;;;26.05;37.02
80837;BME280;70251;60.008;30.404;2023-07-13T10:19:29;99949.47;;;25.94;37.44
80837;BME280;70251;60.008;30.404;2023-07-13T10:22:00;99950.84;;;26.13;37.66
80837;BME280;70251;60.008;30.404;2023-07-13T10:24:30;99941.94;;;26.45;37.38
80837;BME280;70251;60.008;30.404;2023-07-13T10:29:37;99951.59;;;27.06;36.38
80837;BME280;70251;60.008;30.404;2023-07-13T10:32:10;99946.31;;;27.26;36.51
80837;BME280;70251;60.008;30.404;2023-07-13T10:34:36;99934.69;;;27.14;36.18
80837;BME280;70251;60.008;30.404;2023-07-13T10:37:06;99942.56;;;27.05;36.10
80837;BME280;70251;60.008;30.404;2023-07-13T10:39:34;99943.47;;;26.84;36.38
80837;BME280;70251;60.008;30.404;2023-07-13T10:42:06;99945.00;;;26.75;35.83
80837;BME280;70251;60.008;30.404;2023-07-13T10:44:37;99944.09;;;26.69;35.97
80837;BME280;70251;60.008;30.404;2023-07-13T10:47:22;99945.06;;;26.80;35.74
80837;BME280;70251;60.008;30.404;2023-07-13T10:49:50;99947.47;;;27.03;34.63
80837;BME280;70251;60.008;30.404;2023-07-13T10:52:45;99949.38;;;27.03;34.35
80837;BME280;70251;60.008;30.404;2023-07-13T10:55:41;99939.66;;;27.17;35.14
80837;BME280;70251;60.008;30.404;2023-07-13T10:58:42;99948.78;;;27.32;34.83
80837;BME280;70251;60.008;30.404;2023-07-13T11:01:11;99958.34;;;27.25;35.24
80837;BME280;70251;60.008;30.404;2023-07-13T11:03:48;99951.25;;;27.29;35.65
80837;BME280;70251;60.008;30.404;2023-07-13T11:06:37;99965.88;;;27.39;35.66
80837;BME280;70251;60.008;30.404;2023-07-13T11:11:43;99945.09;;;26.58;36.38
80837;BME280;70251;60.008;30.404;2023-07-13T11:16:55;99947.81;;;26.32;36.30
80837;BME280;70251;60.008;30.404;2023-07-13T11:24:49;99949.75;;;25.93;36.68
80837;BME280;70251;60.008;30.404;2023-07-13T11:27:45;99959.41;;;25.79;37.19
80837;BME280;70251;60.008;30.404;2023-07-13T11:30:17;99978.31;;;25.64;37.15
80837;BME280;70251;60.008;30.404;2023-07-13T11:32:50;99971.50;;;25.33;38.01
80837;BME280;70251;60.008;30.404;2023-07-13T11:35:21;99975.06;;;25.33;38.28
80837;BME280;70251;60.008;30.404;2023-07-13T11:37:51;99980.00;;;25.20;38.35
80837;BME280;70251;60.008;30.404;2023-07-13T11:40:17;99981.28;;;25.12;38.58
80837;BME280;70251;60.008;30.404;2023-07-13T11:42:43;99983.47;;;24.99;38.56
80837;BME280;70251;60.008;30.404;2023-07-13T11:45:21;99982.41;;;25.00;39.07
80837;BME280;70251;60.008;30.404;2023-07-13T11:47:51;99977.84;;;24.89;39.20
80837;BME280;70251;60.008;30.404;2023-07-13T11:50:21;99981.00;;;24.97;39.08
80837;BME280;70251;60.008;30.404;2023-07-13T11:52:48;99979.75;;;25.05;39.16
80837;BME280;70251;60.008;30.404;2023-07-13T11:55:19;99973.13;;;25.17;38.86
80837;BME280;70251;60.008;30.404;2023-07-13T11:57:56;99991.03;;;25.25;38.68
80837;BME280;70251;60.008;30.404;2023-07-13T12:00:28;99994.19;;;25.17;39.02
80837;BME280;70251;60.008;30.404;2023-07-13T12:02:56;99988.03;;;25.10;39.16
80837;BME280;70251;60.008;30.404;2023-07-13T12:05:24;100000.44;;;25.01;39.28
80837;BME280;70251;60.008;30.404;2023-07-13T12:07:51;99988.47;;;25.02;39.63
80837;BME280;70251;60.008;30.404;2023-07-13T12:10:18;100001.75;;;24.98;39.49
80837;BME280;70251;60.008;30.404;2023-07-13T12:12:57;99991.06;;;24.80;39.82
80837;BME280;70251;60.008;30.404;2023-07-13T12:15:28;99990.47;;;24.78;39.99
80837;BME280;70251;60.008;30.404;2023-07-13T12:17:55;99992.31;;;24.89;39.94
80837;BME280;70251;60.008;30.404;2023-07-13T12:20:25;99990.25;;;24.96;39.79
80837;BME280;70251;60.008;30.404;2023-07-13T12:22:54;99990.66;;;24.88;39.78
80837;BME280;70251;60.008;30.404;2023-07-13T12:25:28;99993.88;;;24.85;40.31
80837;BME280;70251;60.008;30.404;2023-07-13T12:27:55;99996.00;;;24.83;40.17
80837;BME280;70251;60.008;30.404;2023-07-13T12:30:32;99996.63;;;24.85;39.98
80837;BME280;70251;60.008;30.404;2023-07-13T12:33:07;100003.97;;;24.85;40.37
80837;BME280;70251;60.008;30.404;2023-07-13T12:35:47;100015.72;;;24.85;40.43
80837;BME280;70251;60.008;30.404;2023-07-13T12:38:16;99996.63;;;24.85;40.14
80837;BME280;70251;60.008;30.404;2023-07-13T12:40:42;99998.94;;;24.93;40.17
80837;BME280;70251;60.008;30.404;2023-07-13T12:43:15;100013.81;;;25.02;40.42
80837;BME280;70251;60.008;30.404;2023-07-13T12:46:01;100004.09;;;25.06;40.54
80837;BME280;70251;60.008;30.404;2023-07-13T12:48:27;100006.25;;;25.04;40.43
80837;BME280;70251;60.008;30.404;2023-07-13T12:50:54;99995.34;;;25.04;40.43
80837;BME280;70251;60.008;30.404;2023-07-13T12:53:23;99998.81;;;25.16;40.38
80837;BME280;70251;60.008;30.404;2023-07-13T12:55:56;100005.75;;;25.24;40.07
80837;BME280;70251;60.008;30.404;2023-07-13T12:58:48;99995.03;;;25.34;40.05
80837;BME280;70251;60.008;30.404;2023-07-13T13:01:21;100001.34;;;25.51;40.44
80837;BME280;70251;60.008;30.404;2023-07-13T13:03:51;100001.94;;;25.75;39.94
80837;BME280;70251;60.008;30.404;2023-07-13T13:08:56;99981.78;;;26.14;40.13
80837;BME280;70251;60.008;30.404;2023-07-13T13:11:24;99983.47;;;26.20;39.34
80837;BME280;70251;60.008;30.404;2023-07-13T13:13:51;99981.78;;;26.14;39.64
80837;BME280;70251;60.008;30.404;2023-07-13T13:16:21;99983.44;;;26.15;39.81
80837;BME280;70251;60.008;30.404;2023-07-13T13:18:48;99972.16;;;26.33;39.45
80837;BME280;70251;60.008;30.404;2023-07-13T13:21:15;99974.50;;;26.46;39.60
80837;BME280;70251;60.008;30.404;2023-07-13T13:23:43;99974.34;;;26.58;39.32
80837;BME280;70251;60.008;30.404;2023-07-13T13:26:15;99969.81;;;26.68;39.65
80837;BME280;70251;60.008;30.404;2023-07-13T13:28:42;99968.72;;;26.91;39.67
80837;BME280;70251;60.008;30.404;2023-07-13T13:31:10;99980.13;;;27.10;38.71